Time;durP1;ratioP1;P1;durP2;ratioP2;P2;SDS_P1;SDS_P2;PMS_P1;PMS_P2;Temp;Humidity;BMP_temperature;BMP_pressure;BME280_temperature;BME280_humidity;BME280_pressure;Samples;Min_cycle;Max_cycle;Signal;HPM_P1;HPM_P2
2022/03/30 00:01:32;;;;;;;19.90;11.48;;;6.70;99.90;;;;;;5044012;28;20041;-77
2022/03/30 00:03:57;;;;;;;27.35;11.77;;;6.70;99.90;;;;;;5050624;28;20107;-77
2022/03/30 00:06:23;;;;;;;24.38;11.63;;;6.70;99.90;;;;;;5052393;28;20041;-77
2022/03/30 00:08:48;;;;;;;24.75;12.07;;;6.70;99.90;;;;;;5050210;28;20123;-77
2022/03/30 00:11:14;;;;;;;20.38;11.75;;;6.70;99.90;;;;;;5049679;28;20040;-77
2022/03/30 00:13:40;;;;;;;25.77;12.23;;;6.70;99.90;;;;;;5052267;28;20060;-77
2022/03/30 00:16:08;;;;;;;26.90;12.20;;;6.70;99.90;;;;;;5052527;28;20033;-77
2022/03/30 00:18:34;;;;;;;21.67;11.45;;;6.70;99.90;;;;;;5049991;28;20041;-77
2022/03/30 00:21:00;;;;;;;23.58;11.60;;;6.60;99.90;;;;;;5052174;28;20133;-77
2022/03/30 00:23:26;;;;;;;25.17;12.65;;;6.60;99.90;;;;;;5050096;28;20045;-77
2022/03/30 00:25:52;;;;;;;27.38;12.75;;;6.60;99.90;;;;;;5049427;28;20196;-77
2022/03/30 00:28:17;;;;;;;23.52;11.13;;;6.50;99.90;;;;;;5050781;28;20190;-76
2022/03/30 00:30:43;;;;;;;24.65;12.45;;;6.50;99.90;;;;;;5046676;28;20100;-76
2022/03/30 00:33:09;;;;;;;25.85;12.65;;;6.50;99.90;;;;;;5045542;28;20091;-76
2022/03/30 00:35:35;;;;;;;23.88;12.45;;;6.50;99.90;;;;;;5048694;28;20045;-76
2022/03/30 00:38:00;;;;;;;24.88;12.20;;;6.40;99.90;;;;;;5041924;28;20042;-76
2022/03/30 00:40:26;;;;;;;27.27;12.73;;;6.40;99.90;;;;;;5050309;28;20189;-77
2022/03/30 00:42:52;;;;;;;24.75;13.05;;;6.40;99.90;;;;;;5052640;28;20130;-76
2022/03/30 00:45:23;;;;;;;27.50;12.93;;;6.30;99.90;;;;;;5050210;28;20136;-76
2022/03/30 00:47:49;;;;;;;21.52;11.88;;;6.30;99.90;;;;;;5060590;28;20086;-76
2022/03/30 00:50:19;;;;;;;25.58;12.27;;;6.30;99.90;;;;;;5038274;28;20460;-76
2022/03/30 00:52:46;;;;;;;25.52;12.50;;;6.30;99.90;;;;;;5044962;28;20032;-76
2022/03/30 00:55:14;;;;;;;26.85;13.60;;;6.20;99.90;;;;;;5042335;28;20069;-76
2022/03/30 00:57:41;;;;;;;22.48;12.88;;;6.30;99.90;;;;;;5050894;28;20204;-76
2022/03/30 01:00:09;;;;;;;28.88;13.02;;;6.20;99.90;;;;;;5052277;28;20049;-76
2022/03/30 01:03:05;;;;;;;25.92;12.10;;;6.20;99.90;;;;;;5047895;28;20471;-76
2022/03/30 01:05:31;;;;;;;25.63;13.27;;;6.20;99.90;;;;;;5038230;28;20096;-77
2022/03/30 01:07:58;;;;;;;25.48;12.70;;;6.20;99.90;;;;;;5051910;28;20049;-76
2022/03/30 01:10:24;;;;;;;25.58;12.70;;;6.10;99.90;;;;;;5051729;28;20543;-77
2022/03/30 01:12:52;;;;;;;24.33;12.77;;;6.10;99.90;;;;;;5047638;28;20471;-76
2022/03/30 01:15:19;;;;;;;24.23;12.60;;;6.10;99.90;;;;;;5052362;28;20390;-76
2022/03/30 01:17:45;;;;;;;24.10;12.60;;;6.10;99.90;;;;;;5054831;28;20047;-76
2022/03/30 01:20:15;;;;;;;20.80;12.20;;;6.10;99.90;;;;;;5046461;28;20037;-76
2022/03/30 01:22:40;;;;;;;25.55;13.60;;;6.10;99.90;;;;;;5062224;28;20119;-76
2022/03/30 01:25:07;;;;;;;27.38;12.73;;;6.10;99.90;;;;;;5043437;28;20116;-76
2022/03/30 01:27:32;;;;;;;23.45;12.00;;;6.10;99.90;;;;;;5048060;28;20099;-77
2022/03/30 01:32:50;;;;;;;28.48;12.65;;;6.10;99.90;;;;;;5040159;28;20464;-77
2022/03/30 01:35:16;;;;;;;25.98;12.45;;;6.10;99.90;;;;;;5049379;28;20037;-77
2022/03/30 01:37:41;;;;;;;22.77;12.32;;;6.10;99.90;;;;;;5037088;28;20037;-77
2022/03/30 01:40:08;;;;;;;23.10;12.50;;;6.20;99.90;;;;;;5047324;28;20106;-77
2022/03/30 01:42:34;;;;;;;23.42;12.73;;;6.20;99.90;;;;;;5032750;28;20048;-77
2022/03/30 01:45:00;;;;;;;22.40;12.07;;;6.10;99.90;;;;;;5050805;28;20131;-77
2022/03/30 01:47:26;;;;;;;25.10;13.43;;;6.10;99.90;;;;;;5045464;28;20049;-76
2022/03/30 01:49:52;;;;;;;26.23;13.82;;;6.10;99.90;;;;;;5042462;28;20078;-77
2022/03/30 01:52:18;;;;;;;26.88;13.23;;;6.10;99.90;;;;;;5058843;28;20041;-77
2022/03/30 01:54:44;;;;;;;27.63;13.32;;;6.10;99.90;;;;;;5036813;28;20131;-77
2022/03/30 01:57:13;;;;;;;22.77;12.15;;;6.10;99.90;;;;;;5047339;28;20171;-77
2022/03/30 01:59:44;;;;;;;25.55;13.10;;;6.20;99.90;;;;;;5060581;28;20045;-77
2022/03/30 02:02:11;;;;;;;36.38;13.77;;;6.20;99.90;;;;;;5049908;28;20045;-77
2022/03/30 02:04:36;;;;;;;25.77;13.32;;;6.10;99.90;;;;;;5044946;28;20069;-77
2022/03/30 02:07:04;;;;;;;24.13;12.65;;;6.10;99.90;;;;;;5049599;28;20206;-77
2022/03/30 02:09:29;;;;;;;23.58;13.95;;;6.10;99.90;;;;;;5048830;28;20045;-77
2022/03/30 02:11:55;;;;;;;28.02;13.85;;;6.10;99.90;;;;;;5049304;28;20049;-77
2022/03/30 02:14:21;;;;;;;25.85;12.93;;;6.20;99.90;;;;;;5049344;28;20128;-77
2022/03/30 02:16:47;;;;;;;30.15;15.68;;;6.20;99.90;;;;;;5044602;28;20057;-77
2022/03/30 02:19:13;;;;;;;27.02;15.75;;;6.20;99.90;;;;;;5048746;28;20053;-77
2022/03/30 02:21:38;;;;;;;29.58;15.88;;;6.20;99.90;;;;;;5041942;28;20081;-77
2022/03/30 02:24:04;;;;;;;26.40;14.75;;;6.20;99.90;;;;;;5048215;28;20053;-77
2022/03/30 02:26:30;;;;;;;31.70;15.73;;;6.10;99.90;;;;;;5048968;28;20475;-77
2022/03/30 02:28:56;;;;;;;28.95;14.75;;;6.10;99.90;;;;;;5031770;28;20045;-77
2022/03/30 02:31:22;;;;;;;27.30;14.20;;;6.10;99.90;;;;;;5039764;28;20045;-77
2022/03/30 02:33:48;;;;;;;26.70;14.88;;;6.10;99.90;;;;;;5050001;28;20083;-77
2022/03/30 02:36:14;;;;;;;25.80;14.10;;;6.10;99.90;;;;;;5050475;28;20045;-77
2022/03/30 02:38:41;;;;;;;23.45;14.05;;;6.10;99.90;;;;;;5061368;28;20041;-77
2022/03/30 02:41:08;;;;;;;25.52;13.57;;;6.10;99.90;;;;;;5045818;28;20123;-77
2022/03/30 02:43:34;;;;;;;29.73;14.15;;;6.00;99.90;;;;;;5049960;28;20059;-77
2022/03/30 02:46:00;;;;;;;28.67;14.50;;;6.00;99.90;;;;;;5049844;28;20331;-76
2022/03/30 02:48:32;;;;;;;26.08;14.52;;;5.90;99.90;;;;;;5048272;28;20064;-76
2022/03/30 02:51:03;;;;;;;26.38;13.52;;;5.90;99.90;;;;;;5048964;28;20037;-76
2022/03/30 02:53:30;;;;;;;29.10;14.38;;;5.80;99.90;;;;;;5047602;28;20045;-75
2022/03/30 02:55:56;;;;;;;27.77;13.52;;;5.70;99.90;;;;;;5039649;28;20129;-76
2022/03/30 02:58:22;;;;;;;24.50;14.50;;;5.70;99.90;;;;;;5042896;28;20116;-76
2022/03/30 03:00:49;;;;;;;24.13;13.85;;;5.60;99.90;;;;;;5048710;28;20471;-76
2022/03/30 03:03:15;;;;;;;29.40;14.85;;;5.60;99.90;;;;;;5047364;28;20033;-76
2022/03/30 03:05:42;;;;;;;29.95;15.50;;;5.60;99.90;;;;;;5045939;28;20041;-76
2022/03/30 03:08:13;;;;;;;30.35;15.63;;;5.60;99.90;;;;;;5049603;28;20052;-77
2022/03/30 03:10:43;;;;;;;28.73;14.68;;;5.60;99.90;;;;;;5048240;28;20391;-77
2022/03/30 03:13:09;;;;;;;30.73;15.38;;;5.60;99.90;;;;;;5055112;28;20294;-77
2022/03/30 03:15:36;;;;;;;31.08;16.05;;;5.60;99.90;;;;;;5045582;28;20063;-77
2022/03/30 03:18:02;;;;;;;31.25;15.00;;;5.70;99.90;;;;;;5048239;28;20041;-76
2022/03/30 03:20:29;;;;;;;28.55;15.15;;;5.70;99.90;;;;;;5046585;28;20049;-76
2022/03/30 03:22:56;;;;;;;28.83;15.15;;;5.70;99.90;;;;;;5043852;28;20137;-76
2022/03/30 03:25:22;;;;;;;31.90;15.35;;;5.70;99.90;;;;;;5038847;28;20390;-76
2022/03/30 03:27:48;;;;;;;29.58;16.15;;;5.80;99.90;;;;;;5049113;28;20155;-76
2022/03/30 03:30:14;;;;;;;28.95;14.55;;;5.80;99.90;;;;;;5049664;28;20087;-76
2022/03/30 03:32:41;;;;;;;26.67;15.05;;;5.80;99.90;;;;;;5046123;28;20053;-76
2022/03/30 03:35:09;;;;;;;27.75;14.65;;;5.80;99.90;;;;;;5039902;28;20041;-76
2022/03/30 03:37:36;;;;;;;29.55;15.30;;;5.80;99.90;;;;;;5042172;28;20049;-76
2022/03/30 03:40:02;;;;;;;24.92;14.05;;;5.80;99.90;;;;;;5043845;28;20056;-76
2022/03/30 03:42:27;;;;;;;28.20;13.98;;;5.80;99.90;;;;;;5043383;28;20041;-76
2022/03/30 03:44:53;;;;;;;27.50;14.52;;;5.80;99.90;;;;;;5047753;28;20075;-76
2022/03/30 03:47:19;;;;;;;27.33;14.00;;;5.90;99.90;;;;;;5049002;28;20041;-76
2022/03/30 03:49:45;;;;;;;30.67;15.35;;;5.90;99.90;;;;;;5047094;28;20353;-76
2022/03/30 03:52:10;;;;;;;31.38;15.23;;;5.80;99.90;;;;;;5049317;28;20044;-76
2022/03/30 03:54:36;;;;;;;29.70;15.25;;;5.90;99.90;;;;;;5048880;28;20049;-76
2022/03/30 03:57:01;;;;;;;29.98;15.88;;;5.90;99.90;;;;;;5038181;28;20060;-75
2022/03/30 03:59:27;;;;;;;32.45;15.35;;;5.90;99.90;;;;;;5045587;28;20040;-76
2022/03/30 04:01:52;;;;;;;32.50;15.15;;;5.90;99.90;;;;;;5048655;28;20165;-76
2022/03/30 04:04:18;;;;;;;29.85;14.40;;;5.90;99.90;;;;;;5045705;28;20212;-76
2022/03/30 04:06:44;;;;;;;30.75;15.00;;;5.90;99.90;;;;;;5052437;28;20143;-75
2022/03/30 04:09:10;;;;;;;31.05;15.10;;;5.90;99.90;;;;;;5045458;28;20124;-75
2022/03/30 04:11:35;;;;;;;32.83;15.48;;;5.90;99.90;;;;;;5050823;28;20045;-76
2022/03/30 04:14:01;;;;;;;30.67;16.52;;;5.90;99.90;;;;;;5040988;28;20069;-76
2022/03/30 04:16:27;;;;;;;30.20;14.50;;;5.90;99.90;;;;;;5052040;28;20041;-76
2022/03/30 04:18:52;;;;;;;32.90;15.27;;;5.90;99.90;;;;;;5050810;28;20055;-76
2022/03/30 04:21:18;;;;;;;37.85;14.93;;;5.90;99.90;;;;;;5047574;28;20034;-76
2022/03/30 04:23:44;;;;;;;27.58;15.13;;;5.90;99.90;;;;;;5042443;28;20120;-76
2022/03/30 04:26:10;;;;;;;27.00;14.95;;;5.90;99.90;;;;;;5051090;28;20174;-76
2022/03/30 04:28:40;;;;;;;31.77;15.25;;;6.00;99.90;;;;;;5040588;28;20037;-77
2022/03/30 04:31:07;;;;;;;26.40;14.05;;;6.00;99.90;;;;;;5052332;28;20037;-76
2022/03/30 04:33:33;;;;;;;32.88;15.50;;;6.00;99.90;;;;;;5052057;28;20052;-76
2022/03/30 04:35:59;;;;;;;28.33;16.00;;;6.00;99.90;;;;;;5050483;28;20399;-76
2022/03/30 04:38:25;;;;;;;27.85;15.10;;;5.90;99.90;;;;;;5052783;28;20459;-76
2022/03/30 04:40:50;;;;;;;26.88;15.02;;;6.00;99.90;;;;;;5051665;28;20328;-76
2022/03/30 04:43:16;;;;;;;31.88;15.23;;;5.90;99.90;;;;;;5051767;28;20037;-77
2022/03/30 04:45:41;;;;;;;30.92;15.70;;;5.90;99.90;;;;;;5050087;28;20069;-76
2022/03/30 04:48:07;;;;;;;31.08;14.80;;;6.00;99.90;;;;;;5030636;28;20132;-76
2022/03/30 04:50:32;;;;;;;28.50;15.23;;;5.90;99.90;;;;;;5047563;28;20052;-76
2022/03/30 04:52:58;;;;;;;30.02;14.88;;;6.00;99.90;;;;;;5049472;28;20053;-76
2022/03/30 04:55:24;;;;;;;32.25;15.38;;;6.00;99.90;;;;;;5051144;28;20060;-76
2022/03/30 04:57:49;;;;;;;28.27;14.95;;;6.00;99.90;;;;;;5048788;28;20049;-76
2022/03/30 05:00:15;;;;;;;29.30;15.20;;;6.00;99.90;;;;;;5050042;28;20371;-76
2022/03/30 05:02:41;;;;;;;30.92;15.88;;;6.00;99.90;;;;;;5044340;28;20068;-73
2022/03/30 05:05:09;;;;;;;34.58;15.07;;;6.00;99.90;;;;;;5045503;28;20076;-70
2022/03/30 05:07:35;;;;;;;31.45;15.38;;;6.10;99.90;;;;;;5046661;28;20353;-73
2022/03/30 05:10:01;;;;;;;34.25;14.48;;;6.10;99.90;;;;;;5040573;28;20041;-76
2022/03/30 05:12:27;;;;;;;34.85;14.98;;;6.00;99.90;;;;;;5043309;28;20044;-75
2022/03/30 05:14:52;;;;;;;27.98;14.27;;;6.00;99.90;;;;;;5047487;28;20051;-74
2022/03/30 05:17:19;;;;;;;27.60;14.63;;;6.00;99.90;;;;;;5041004;28;20041;-73
2022/03/30 05:19:44;;;;;;;30.33;14.88;;;6.00;99.90;;;;;;5044203;28;20075;-72
2022/03/30 05:22:10;;;;;;;26.33;14.07;;;5.90;99.90;;;;;;5049669;28;20037;-74
2022/03/30 05:24:37;;;;;;;25.02;13.23;;;6.00;99.90;;;;;;5032880;28;20056;-74
2022/03/30 05:27:03;;;;;;;30.10;14.32;;;5.90;99.90;;;;;;5032043;28;20047;-74
2022/03/30 05:29:29;;;;;;;29.02;14.23;;;5.90;99.90;;;;;;5052404;28;20052;-74
2022/03/30 05:31:55;;;;;;;25.42;13.73;;;5.90;99.90;;;;;;5047428;28;20041;-74
2022/03/30 05:34:21;;;;;;;26.10;13.32;;;6.00;99.90;;;;;;5048306;28;20107;-75
2022/03/30 05:36:46;;;;;;;29.88;14.80;;;5.90;99.90;;;;;;5041711;28;20041;-73
2022/03/30 05:39:12;;;;;;;30.55;13.80;;;5.90;99.90;;;;;;5049083;28;20041;-72
2022/03/30 05:41:38;;;;;;;31.92;13.63;;;5.90;99.90;;;;;;5047922;28;20127;-76
2022/03/30 05:44:04;;;;;;;29.23;13.80;;;5.90;99.90;;;;;;5042790;28;20046;-74
2022/03/30 05:46:29;;;;;;;29.77;13.48;;;6.00;99.90;;;;;;5051185;28;20450;-75
2022/03/30 05:48:55;;;;;;;25.95;12.15;;;6.00;99.90;;;;;;5051759;28;20938;-75
2022/03/30 05:51:20;;;;;;;27.80;12.00;;;6.00;99.90;;;;;;5049073;28;20044;-76
2022/03/30 05:53:47;;;;;;;20.60;10.52;;;6.00;99.90;;;;;;5050150;28;20045;-75
2022/03/30 05:56:13;;;;;;;19.98;9.77;;;6.00;99.90;;;;;;5050081;28;20057;-80
2022/03/30 05:58:39;;;;;;;19.65;9.50;;;5.90;99.90;;;;;;5048369;28;20556;-75
2022/03/30 06:01:04;;;;;;;15.65;8.27;;;6.00;99.90;;;;;;5059348;28;20143;-75
2022/03/30 06:03:30;;;;;;;15.40;6.28;;;6.00;99.90;;;;;;5042932;28;20037;-74
2022/03/30 06:05:55;;;;;;;12.80;5.75;;;6.00;99.90;;;;;;5046900;28;20047;-74
2022/03/30 06:08:21;;;;;;;11.00;4.75;;;6.00;99.90;;;;;;5044068;28;20041;-74
2022/03/30 06:10:48;;;;;;;12.35;5.75;;;6.10;99.90;;;;;;5045929;28;20173;-74
2022/03/30 06:13:13;;;;;;;12.40;5.38;;;6.10;99.90;;;;;;5048105;28;20080;-74
2022/03/30 06:15:39;;;;;;;10.52;5.40;;;6.10;99.90;;;;;;5015753;28;20463;-71
2022/03/30 06:18:11;;;;;;;8.02;4.28;;;6.20;99.90;;;;;;5045548;28;20150;-73
2022/03/30 06:20:38;;;;;;;10.43;4.00;;;6.20;99.90;;;;;;5060096;28;20470;-70
2022/03/30 06:23:04;;;;;;;12.82;4.40;;;6.20;99.90;;;;;;5047400;28;20124;-72
2022/03/30 06:25:30;;;;;;;6.57;3.20;;;6.20;99.90;;;;;;5047092;28;20041;-71
2022/03/30 06:27:57;;;;;;;6.70;3.45;;;6.20;99.90;;;;;;5048252;28;20053;-72
2022/03/30 06:30:24;;;;;;;6.65;3.10;;;6.20;99.90;;;;;;5045968;28;20048;-72
2022/03/30 06:32:51;;;;;;;5.35;2.70;;;6.20;99.90;;;;;;5049582;28;20048;-73
2022/03/30 06:35:20;;;;;;;4.95;2.00;;;6.30;99.90;;;;;;5047470;28;20053;-73
2022/03/30 06:37:47;;;;;;;5.88;2.00;;;6.30;99.90;;;;;;5048419;28;20037;-73
2022/03/30 06:40:17;;;;;;;5.13;2.10;;;6.20;99.90;;;;;;5048425;28;20048;-74
2022/03/30 06:42:44;;;;;;;4.93;2.25;;;6.30;99.90;;;;;;5053121;28;20091;-74
2022/03/30 06:45:11;;;;;;;6.80;2.40;;;6.40;99.90;;;;;;5055317;28;20379;-73
2022/03/30 06:47:36;;;;;;;4.45;1.75;;;6.40;99.90;;;;;;5047188;28;20036;-73
2022/03/30 06:50:03;;;;;;;4.38;2.40;;;6.50;99.90;;;;;;5036306;28;20068;-74
2022/03/30 06:52:32;;;;;;;5.38;2.90;;;6.50;99.90;;;;;;5029617;28;20050;-73
2022/03/30 06:55:01;;;;;;;4.43;2.00;;;6.50;99.90;;;;;;5037410;28;20146;-73
2022/03/30 06:57:27;;;;;;;3.67;1.90;;;6.60;99.90;;;;;;5042473;28;20064;-72
2022/03/30 06:59:53;;;;;;;4.95;1.45;;;6.60;99.90;;;;;;5047287;28;20049;-71
2022/03/30 07:02:19;;;;;;;3.95;1.38;;;6.70;99.90;;;;;;5044918;28;20073;-72
2022/03/30 07:04:44;;;;;;;2.83;1.35;;;6.80;99.90;;;;;;5049231;28;20520;-74
2022/03/30 07:12:38;;;;;;;3.10;1.30;;;6.90;99.90;;;;;;5064436;28;20096;-73
2022/03/30 07:15:05;;;;;;;2.85;1.10;;;6.90;99.90;;;;;;5049846;28;20061;-75
2022/03/30 07:17:30;;;;;;;2.60;1.08;;;7.00;99.90;;;;;;5048784;28;20040;-74
2022/03/30 07:19:56;;;;;;;1.73;1.10;;;7.10;99.90;;;;;;5040853;28;20033;-73
2022/03/30 07:22:22;;;;;;;2.00;1.00;;;7.10;99.90;;;;;;5029531;28;20129;-75
2022/03/30 07:24:47;;;;;;;3.05;1.20;;;7.10;99.90;;;;;;5033226;28;20182;-75
2022/03/30 07:27:13;;;;;;;3.65;1.25;;;7.10;99.90;;;;;;5048703;28;20134;-74
2022/03/30 07:29:39;;;;;;;2.00;1.10;;;7.20;99.90;;;;;;5046404;28;20040;-75
2022/03/30 07:32:05;;;;;;;2.88;1.40;;;7.20;99.90;;;;;;5047971;28;20128;-75
2022/03/30 07:34:30;;;;;;;3.03;1.40;;;7.30;99.90;;;;;;5047583;28;20037;-74
2022/03/30 07:36:57;;;;;;;2.83;1.40;;;7.30;99.90;;;;;;5047810;28;20442;-74
2022/03/30 07:39:22;;;;;;;4.60;1.95;;;7.40;99.90;;;;;;5048433;28;20121;-74
2022/03/30 07:41:48;;;;;;;3.22;1.77;;;7.50;99.90;;;;;;5033998;28;20075;-75
2022/03/30 07:44:14;;;;;;;4.20;1.75;;;7.50;99.90;;;;;;5033919;28;20055;-75
2022/03/30 07:46:40;;;;;;;3.50;1.70;;;7.50;99.90;;;;;;5032904;28;20173;-74
2022/03/30 07:49:05;;;;;;;5.65;2.15;;;7.60;99.90;;;;;;5032386;28;20061;-75
2022/03/30 07:51:31;;;;;;;4.82;2.20;;;7.50;99.90;;;;;;5033275;28;20452;-74
2022/03/30 07:53:57;;;;;;;4.43;2.10;;;7.60;99.90;;;;;;5051064;28;20045;-75
2022/03/30 07:56:23;;;;;;;4.57;2.03;;;7.60;99.90;;;;;;5068379;28;20352;-75
2022/03/30 07:58:49;;;;;;;4.35;2.13;;;7.60;99.90;;;;;;5072487;28;20125;-74
2022/03/30 08:01:18;;;;;;;4.13;1.90;;;7.60;99.90;;;;;;5070821;28;20498;-75
2022/03/30 08:03:44;;;;;;;4.72;2.13;;;7.60;99.90;;;;;;5072211;28;20067;-75
2022/03/30 08:06:10;;;;;;;4.72;1.90;;;7.50;99.90;;;;;;5051414;28;20037;-75
2022/03/30 08:08:36;;;;;;;3.88;2.13;;;7.60;99.90;;;;;;5051770;28;20044;-74
2022/03/30 08:11:02;;;;;;;4.75;2.40;;;7.60;99.90;;;;;;5050702;28;20067;-74
2022/03/30 08:13:27;;;;;;;4.53;2.08;;;7.70;99.90;;;;;;5051957;28;20045;-75
2022/03/30 08:15:53;;;;;;;4.40;2.20;;;7.80;99.90;;;;;;5059475;28;20051;-74
2022/03/30 08:18:19;;;;;;;5.60;2.38;;;7.90;99.90;;;;;;5053012;28;20052;-75
2022/03/30 08:23:28;;;;;;;3.38;1.60;;;8.00;99.90;;;;;;5032097;28;20051;-75
2022/03/30 08:25:54;;;;;;;4.20;1.85;;;7.90;99.90;;;;;;5056116;28;20120;-74
2022/03/30 08:28:20;;;;;;;5.30;1.75;;;8.00;99.90;;;;;;5057174;28;20037;-76
2022/03/30 08:30:45;;;;;;;4.35;1.83;;;8.00;99.90;;;;;;5040661;28;20045;-74
2022/03/30 08:33:11;;;;;;;4.00;1.70;;;8.10;99.90;;;;;;5049405;28;20112;-75
2022/03/30 08:35:36;;;;;;;3.85;1.80;;;8.10;99.90;;;;;;5059830;28;20043;-74
2022/03/30 08:38:03;;;;;;;3.25;1.67;;;8.10;99.90;;;;;;5072193;28;20118;-74
2022/03/30 08:40:28;;;;;;;2.75;1.27;;;8.20;99.90;;;;;;5071918;28;20309;-75
2022/03/30 08:42:55;;;;;;;4.95;1.40;;;8.20;99.90;;;;;;5055796;28;20102;-73
2022/03/30 08:45:21;;;;;;;7.50;1.80;;;8.20;99.90;;;;;;5057906;28;20048;-72
2022/03/30 08:47:47;;;;;;;5.13;1.60;;;8.30;99.90;;;;;;5071285;28;20040;-74
2022/03/30 08:50:13;;;;;;;13.55;1.98;;;8.40;99.90;;;;;;5043755;28;20260;-74
2022/03/30 08:52:38;;;;;;;6.05;1.52;;;8.40;99.90;;;;;;5050594;28;20548;-74
2022/03/30 08:55:05;;;;;;;14.13;1.83;;;8.40;99.90;;;;;;5046788;28;20121;-73
2022/03/30 08:57:31;;;;;;;7.15;1.40;;;8.40;99.90;;;;;;5046312;28;20061;-74
2022/03/30 09:00:05;;;;;;;6.22;1.63;;;8.40;99.90;;;;;;5049353;28;20439;-74
2022/03/30 09:02:39;;;;;;;3.13;1.20;;;8.50;99.90;;;;;;5050771;28;20119;-74
2022/03/30 09:05:19;;;;;;;3.10;1.20;;;8.50;99.90;;;;;;5050715;28;21827;-75
2022/03/30 09:07:48;;;;;;;3.60;1.40;;;8.70;99.90;;;;;;5051007;28;20864;-74
2022/03/30 09:10:18;;;;;;;5.63;1.48;;;8.80;99.90;;;;;;5065920;28;20094;-74
2022/03/30 09:12:45;;;;;;;3.30;1.23;;;8.90;99.60;;;;;;5050351;28;20133;-74
2022/03/30 09:15:12;;;;;;;4.78;1.30;;;9.00;98.20;;;;;;5051059;28;20076;-74
2022/03/30 09:17:42;;;;;;;4.60;1.40;;;9.10;97.00;;;;;;5071168;28;20037;-74
2022/03/30 09:20:16;;;;;;;5.43;1.40;;;9.20;96.10;;;;;;5066890;28;20452;-75
2022/03/30 09:22:49;;;;;;;3.08;1.45;;;9.10;95.30;;;;;;5049825;28;20514;-74
2022/03/30 09:25:17;;;;;;;5.68;1.80;;;9.10;97.00;;;;;;5050269;28;20046;-75
2022/03/30 09:27:44;;;;;;;4.70;1.70;;;9.20;97.60;;;;;;5050442;28;20048;-74
2022/03/30 09:30:15;;;;;;;3.92;1.75;;;9.30;98.00;;;;;;5045903;28;20077;-74
2022/03/30 09:32:43;;;;;;;3.58;1.60;;;9.30;97.40;;;;;;5048423;28;20056;-74
2022/03/30 09:35:32;;;;;;;5.25;2.10;;;9.30;95.20;;;;;;5049734;28;20434;-75
2022/03/30 09:38:03;;;;;;;3.55;1.55;;;9.40;96.80;;;;;;5050261;28;20099;-74
2022/03/30 09:40:44;;;;;;;4.78;1.45;;;9.40;95.10;;;;;;5050162;28;20048;-75
2022/03/30 09:43:12;;;;;;;3.53;1.30;;;9.40;95.90;;;;;;5049202;28;20102;-74
2022/03/30 09:45:38;;;;;;;6.03;1.52;;;9.40;96.00;;;;;;5055446;28;20029;-74
2022/03/30 09:48:17;;;;;;;5.60;1.20;;;9.40;95.40;;;;;;5068900;28;20048;-74
2022/03/30 09:50:51;;;;;;;1.85;0.98;;;9.30;92.50;;;;;;5061584;28;20045;-75
2022/03/30 09:53:18;;;;;;;4.60;1.10;;;9.50;93.00;;;;;;5050115;28;20052;-75
2022/03/30 09:55:52;;;;;;;4.00;1.20;;;9.50;92.50;;;;;;5053564;28;20067;-73
2022/03/30 09:58:21;;;;;;;4.03;1.30;;;9.40;92.00;;;;;;5052339;28;20049;-72
2022/03/30 10:01:04;;;;;;;4.95;1.63;;;9.30;91.90;;;;;;5050134;28;20113;-75
2022/03/30 10:03:36;;;;;;;5.68;1.27;;;9.50;92.10;;;;;;5041210;28;20041;-74
2022/03/30 10:06:03;;;;;;;4.28;1.00;;;9.50;91.10;;;;;;5045738;28;20076;-75
2022/03/30 10:08:30;;;;;;;3.28;0.95;;;9.60;91.80;;;;;;5045813;28;20357;-74
2022/03/30 10:10:55;;;;;;;3.88;1.10;;;9.80;91.80;;;;;;5047351;28;20459;-73
2022/03/30 10:13:22;;;;;;;6.25;1.38;;;10.10;92.30;;;;;;5041386;28;20049;-74
2022/03/30 10:15:47;;;;;;;4.90;1.60;;;10.10;90.70;;;;;;5036692;28;20055;-75
2022/03/30 10:18:13;;;;;;;4.03;1.40;;;10.10;88.60;;;;;;5049322;28;20037;-72
2022/03/30 10:20:39;;;;;;;3.50;1.50;;;10.30;90.10;;;;;;5043111;28;20060;-73
2022/03/30 10:23:30;;;;;;;3.45;1.30;;;10.30;87.50;;;;;;5045527;28;20102;-74
2022/03/30 10:26:09;;;;;;;5.75;1.42;;;10.30;85.20;;;;;;5050028;28;20101;-74
2022/03/30 10:28:41;;;;;;;5.32;1.83;;;10.40;89.40;;;;;;5049588;28;20037;-74
2022/03/30 10:31:07;;;;;;;4.25;1.50;;;10.30;86.90;;;;;;5048128;28;20041;-73
2022/03/30 10:33:34;;;;;;;3.92;1.42;;;10.30;88.90;;;;;;5049885;28;20328;-72
2022/03/30 10:36:19;;;;;;;4.50;1.50;;;10.20;88.90;;;;;;5049537;28;20045;-73
2022/03/30 10:39:11;;;;;;;3.72;1.38;;;10.30;88.10;;;;;;5048573;28;20120;-73
2022/03/30 10:41:53;;;;;;;4.57;1.30;;;10.40;89.80;;;;;;5048007;28;20448;-73
2022/03/30 10:44:41;;;;;;;5.25;1.60;;;10.40;89.40;;;;;;5048990;28;20041;-74
2022/03/30 10:47:18;;;;;;;6.40;1.70;;;10.30;87.30;;;;;;5048052;28;20045;-75
2022/03/30 10:49:58;;;;;;;3.78;1.80;;;10.20;89.80;;;;;;5044028;28;20053;-74
2022/03/30 10:52:32;;;;;;;5.82;1.80;;;10.30;91.30;;;;;;5044440;28;20064;-74
2022/03/30 10:55:12;;;;;;;3.95;1.52;;;10.20;92.10;;;;;;5055192;28;20045;-73
2022/03/30 10:57:57;;;;;;;4.35;1.73;;;10.30;91.60;;;;;;5068592;28;20500;-74
2022/03/30 11:00:25;;;;;;;5.93;1.95;;;10.30;91.50;;;;;;5054732;28;20509;-74
2022/03/30 11:02:51;;;;;;;6.70;1.73;;;10.40;92.80;;;;;;5047574;28;20045;-74
2022/03/30 11:05:28;;;;;;;4.10;1.70;;;10.40;90.50;;;;;;5048822;28;20041;-75
2022/03/30 11:07:53;;;;;;;5.00;2.20;;;10.50;87.60;;;;;;5044593;28;20128;-75
2022/03/30 11:10:25;;;;;;;4.97;2.00;;;10.60;90.40;;;;;;5042393;28;20125;-75
2022/03/30 11:13:11;;;;;;;6.90;2.58;;;10.40;88.50;;;;;;5043057;28;20360;-75
2022/03/30 11:16:07;;;;;;;4.93;2.60;;;10.50;85.30;;;;;;5047849;28;20049;-75
2022/03/30 11:18:33;;;;;;;4.95;2.60;;;10.80;85.70;;;;;;5042945;28;20467;-75
2022/03/30 11:21:15;;;;;;;5.95;2.70;;;10.70;86.70;;;;;;5047318;28;20146;-74
2022/03/30 11:24:06;;;;;;;5.40;2.72;;;10.80;85.50;;;;;;5044548;28;20037;-74
2022/03/30 11:26:47;;;;;;;4.20;2.78;;;10.90;87.40;;;;;;5028060;28;20119;-75
2022/03/30 11:29:48;;;;;;;7.43;2.75;;;10.90;87.10;;;;;;5043906;28;20070;-74
2022/03/30 11:32:30;;;;;;;4.88;2.33;;;11.00;88.80;;;;;;5049027;28;20080;-73
2022/03/30 11:35:12;;;;;;;5.97;1.90;;;10.90;82.40;;;;;;5046669;28;20056;-75
2022/03/30 11:37:40;;;;;;;5.10;1.90;;;10.90;81.30;;;;;;5046574;28;20044;-74
2022/03/30 11:40:08;;;;;;;4.55;2.03;;;10.90;83.20;;;;;;5048187;28;20044;-75
2022/03/30 11:42:38;;;;;;;4.07;1.65;;;11.00;82.90;;;;;;5062043;28;20064;-74
2022/03/30 11:45:12;;;;;;;3.80;2.08;;;11.10;82.90;;;;;;5048465;28;20163;-81
2022/03/30 11:47:43;;;;;;;4.07;1.80;;;11.10;80.80;;;;;;5049343;28;20142;-75
2022/03/30 11:50:10;;;;;;;4.13;1.70;;;11.30;80.60;;;;;;5044736;28;20037;-75
2022/03/30 11:52:36;;;;;;;3.60;1.58;;;11.20;76.50;;;;;;5049970;28;20061;-74
2022/03/30 11:55:02;;;;;;;4.78;1.65;;;11.20;76.90;;;;;;5047563;28;20041;-75
2022/03/30 11:57:27;;;;;;;4.75;1.70;;;11.20;76.00;;;;;;5042957;28;20045;-72
2022/03/30 11:59:57;;;;;;;6.90;1.92;;;11.20;78.30;;;;;;5046569;28;20047;-73
2022/03/30 12:02:24;;;;;;;4.00;1.70;;;11.00;81.20;;;;;;5040519;28;20053;-71
2022/03/30 12:04:51;;;;;;;3.70;1.77;;;10.80;84.10;;;;;;5044123;28;20099;-72
2022/03/30 12:07:19;;;;;;;5.78;1.67;;;10.60;85.80;;;;;;5049175;28;20148;-72
2022/03/30 12:09:55;;;;;;;5.10;1.88;;;10.60;85.20;;;;;;5048491;28;20147;-74
2022/03/30 12:12:31;;;;;;;4.13;1.50;;;10.30;85.10;;;;;;5045963;28;20049;-72
2022/03/30 12:15:07;;;;;;;4.35;1.50;;;10.40;85.80;;;;;;5036298;28;20409;-72
2022/03/30 12:17:34;;;;;;;4.53;1.40;;;10.40;86.50;;;;;;5045636;28;20090;-73
2022/03/30 12:20:00;;;;;;;5.03;1.50;;;10.40;85.30;;;;;;5047184;28;20140;-72
2022/03/30 12:22:26;;;;;;;4.32;1.40;;;10.50;84.00;;;;;;5045140;28;20049;-72
2022/03/30 12:24:52;;;;;;;3.35;1.30;;;10.50;84.40;;;;;;5046465;28;20138;-72
2022/03/30 12:27:18;;;;;;;4.55;1.45;;;10.60;82.70;;;;;;5047101;28;20094;-74
2022/03/30 12:29:44;;;;;;;5.68;1.60;;;10.60;81.60;;;;;;5049040;28;20041;-73
2022/03/30 12:32:13;;;;;;;6.65;1.88;;;10.60;79.70;;;;;;5036759;28;20057;-73
2022/03/30 12:34:40;;;;;;;4.15;1.50;;;10.50;81.30;;;;;;5049536;28;20057;-73
2022/03/30 12:37:09;;;;;;;5.50;1.63;;;10.60;82.70;;;;;;5054679;28;20470;-73
2022/03/30 12:39:40;;;;;;;5.45;1.60;;;10.70;82.70;;;;;;5059435;28;20079;-72
2022/03/30 12:42:09;;;;;;;4.43;1.40;;;10.90;83.20;;;;;;5051647;28;20120;-73
2022/03/30 12:44:38;;;;;;;4.68;1.40;;;10.90;82.60;;;;;;5051899;28;20037;-73
2022/03/30 12:47:13;;;;;;;4.15;1.40;;;10.90;81.40;;;;;;5041061;28;20033;-73
2022/03/30 12:49:42;;;;;;;3.35;1.10;;;10.90;79.80;;;;;;5046544;28;20072;-73
2022/03/30 12:52:15;;;;;;;4.05;1.27;;;10.90;79.30;;;;;;5041918;28;20049;-71
2022/03/30 12:54:45;;;;;;;3.70;1.58;;;11.10;80.10;;;;;;5049732;28;20066;-73
2022/03/30 12:57:12;;;;;;;3.50;1.17;;;11.10;77.90;;;;;;5050960;28;20049;-73
2022/03/30 12:59:40;;;;;;;3.75;1.10;;;11.30;75.60;;;;;;5067423;28;20063;-74
2022/03/30 13:02:25;;;;;;;2.90;1.10;;;11.30;74.70;;;;;;5062707;28;20539;-72